Time;durP1;ratioP1;P1;durP2;ratioP2;P2;SDS_P1;SDS_P2;PMS_P1;PMS_P2;Temp;Humidity;BMP_temperature;BMP_pressure;BME280_temperature;BME280_humidity;BME280_pressure;Samples;Min_cycle;Max_cycle;Signal;HPM_P1;HPM_P2
2022/09/14 00:00:50;;;;;;;30.83;19.65;;;;;;;12.57;100.00;98520.50;4918874;29;20036;-82
2022/09/14 00:03:16;;;;;;;41.00;21.05;;;;;;;12.70;100.00;98515.09;4901928;29;20064;-80
2022/09/14 00:05:42;;;;;;;42.88;22.00;;;;;;;12.71;100.00;98511.44;4884439;29;20119;-80
2022/09/14 00:08:09;;;;;;;50.40;21.83;;;;;;;12.71;100.00;98502.75;4887434;29;20044;-81
2022/09/14 00:10:47;;;;;;;39.42;21.38;;;;;;;12.70;100.00;98512.47;4913837;29;20037;-81
2022/09/14 00:13:13;;;;;;;44.97;23.88;;;;;;;12.79;100.00;98517.44;4904197;29;20410;-80
2022/09/14 00:15:42;;;;;;;39.10;20.38;;;;;;;12.82;100.00;98511.72;4903896;29;20091;-80
2022/09/14 00:18:10;;;;;;;40.45;21.65;;;;;;;12.74;100.00;98506.75;4903555;29;20131;-81
2022/09/14 00:20:36;;;;;;;37.42;20.20;;;;;;;12.76;100.00;98499.44;4886285;29;20036;-81
2022/09/14 00:23:02;;;;;;;31.05;19.05;;;;;;;12.67;100.00;98505.00;4886240;29;20432;-82
2022/09/14 00:25:28;;;;;;;30.85;16.77;;;;;;;12.69;100.00;98505.59;4867940;29;20123;-82
2022/09/14 00:27:55;;;;;;;35.92;17.20;;;;;;;12.71;100.00;98511.44;4887699;29;20033;-82
2022/09/14 00:30:22;;;;;;;31.58;16.38;;;;;;;12.63;100.00;98506.50;4887388;29;20065;-83
2022/09/14 00:32:49;;;;;;;33.88;16.48;;;;;;;12.59;100.00;98502.69;4887911;29;20052;-82
2022/09/14 00:35:17;;;;;;;29.30;15.63;;;;;;;12.46;100.00;98502.84;4865419;29;20032;-82
2022/09/14 00:37:43;;;;;;;31.42;16.33;;;;;;;12.53;100.00;98498.28;4884880;29;20115;-82
2022/09/14 00:40:11;;;;;;;22.15;13.38;;;;;;;12.41;100.00;98485.88;4882235;29;20762;-82
2022/09/14 00:42:37;;;;;;;26.27;16.15;;;;;;;12.47;100.00;98488.66;4882207;29;20036;-81
2022/09/14 00:45:11;;;;;;;29.48;16.30;;;;;;;12.47;100.00;98478.13;4867510;29;20037;-81
2022/09/14 00:47:38;;;;;;;26.33;15.90;;;;;;;12.30;100.00;98462.91;4886561;29;20032;-81
2022/09/14 00:50:05;;;;;;;22.67;14.35;;;;;;;12.30;100.00;98478.72;4884976;29;20036;-82
2022/09/14 00:52:36;;;;;;;25.35;14.00;;;;;;;12.22;100.00;98466.66;4888617;29;20044;-81
2022/09/14 00:55:06;;;;;;;23.77;14.68;;;;;;;12.18;100.00;98472.56;4884056;29;20184;-81
2022/09/14 00:57:39;;;;;;;26.48;15.05;;;;;;;12.18;100.00;98469.94;4896558;29;20558;-82
2022/09/14 01:00:08;;;;;;;;;;;;;;;12.23;100.00;98464.84;4886438;29;20044;-82
2022/09/14 01:02:34;;;;;;;37.95;17.83;;;;;;;12.28;100.00;98464.97;4886308;29;20362;-81
2022/09/14 01:04:59;;;;;;;34.58;18.02;;;;;;;12.27;100.00;98463.38;4868487;29;20072;-81
2022/09/14 01:07:43;;;;;;;30.60;17.52;;;;;;;12.33;100.00;98457.22;4897886;29;20064;-81
2022/09/14 01:10:24;;;;;;;28.17;16.27;;;;;;;12.25;100.00;98452.25;4885950;29;20120;-81
2022/09/14 01:13:07;;;;;;;34.50;16.83;;;;;;;12.30;100.00;98449.75;4899696;29;20240;-82
2022/09/14 01:15:51;;;;;;;26.37;15.67;;;;;;;12.31;100.00;98451.38;4886957;29;20033;-82
2022/09/14 01:18:30;;;;;;;32.45;17.52;;;;;;;12.34;100.00;98443.03;4888706;29;20114;-83
2022/09/14 01:21:02;;;;;;;35.92;18.23;;;;;;;12.35;100.00;98452.53;4905267;29;20040;-82
2022/09/14 01:23:47;;;;;;;42.17;22.85;;;;;;;12.37;100.00;98452.31;4892485;29;20047;-82
2022/09/14 01:26:51;;;;;;;49.90;24.05;;;;;;;12.36;100.00;98448.09;4887814;29;20395;-81
2022/09/14 01:29:44;;;;;;;51.35;25.83;;;;;;;12.27;100.00;98437.06;4890505;29;20144;-82
2022/09/14 01:32:19;;;;;;;51.67;25.52;;;;;;;12.38;100.00;98441.59;4884730;29;20044;-82
2022/09/14 01:34:53;;;;;;;52.58;26.67;;;;;;;12.26;100.00;98438.06;4889039;29;20025;-81
2022/09/14 01:37:27;;;;;;;58.22;29.05;;;;;;;12.41;100.00;98441.13;4886637;29;20164;-81
2022/09/14 01:40:03;;;;;;;55.85;27.73;;;;;;;12.40;100.00;98428.19;4887135;29;20056;-81
2022/09/14 01:42:33;;;;;;;65.70;29.73;;;;;;;12.30;100.00;98415.56;4900451;29;20104;-82
2022/09/14 01:45:02;;;;;;;67.20;32.55;;;;;;;12.37;100.00;98426.00;4886704;29;20396;-81
2022/09/14 01:47:37;;;;;;;65.63;33.10;;;;;;;12.34;100.00;98406.19;4889564;29;20498;-82
2022/09/14 01:50:19;;;;;;;68.13;32.72;;;;;;;12.42;100.00;98428.78;4890055;29;20048;-81
2022/09/14 01:52:50;;;;;;;72.85;34.40;;;;;;;12.47;100.00;98423.63;4888141;29;20372;-82
2022/09/14 01:55:22;;;;;;;71.15;33.67;;;;;;;12.47;100.00;98420.22;4899998;29;20032;-81
2022/09/14 01:57:59;;;;;;;72.93;35.95;;;;;;;12.38;100.00;98411.81;4886255;29;20040;-81
2022/09/14 02:00:25;;;;;;;71.95;33.13;;;;;;;12.37;100.00;98411.00;4885718;29;20060;-83
2022/09/14 02:03:18;;;;;;;72.50;34.35;;;;;;;12.35;100.00;98410.41;4887214;29;20037;-82
2022/09/14 02:05:47;;;;;;;80.72;37.05;;;;;;;12.31;100.00;98396.09;4901591;29;20044;-82
2022/09/14 02:08:14;;;;;;;80.78;37.47;;;;;;;12.31;100.00;98401.38;4904869;29;20068;-82
2022/09/14 02:10:40;;;;;;;85.78;38.03;;;;;;;12.37;100.00;98405.75;4884409;29;20162;-82
2022/09/14 02:13:06;;;;;;;84.88;36.90;;;;;;;12.31;100.00;98404.00;4882943;29;20040;-82
2022/09/14 02:15:31;;;;;;;77.03;34.53;;;;;;;12.38;100.00;98406.56;4904538;29;20177;-81
2022/09/14 02:17:57;;;;;;;82.07;35.67;;;;;;;12.41;100.00;98396.41;4902108;29;20037;-81
2022/09/14 02:20:58;;;;;;;75.45;33.97;;;;;;;12.53;100.00;98403.53;4890250;29;20037;-82
2022/09/14 02:23:24;;;;;;;77.80;33.80;;;;;;;12.41;100.00;98406.09;4885544;29;20486;-82
2022/09/14 02:25:49;;;;;;;84.18;35.38;;;;;;;12.30;100.00;98415.56;4909826;29;20083;-82
2022/09/14 02:28:26;;;;;;;74.55;33.95;;;;;;;12.23;100.00;98399.06;4925014;29;20119;-82
2022/09/14 02:31:10;;;;;;;71.97;32.53;;;;;;;12.34;100.00;98414.09;4892980;29;20032;-82
2022/09/14 02:34:02;;;;;;;75.72;35.97;;;;;;;12.13;100.00;98402.19;4890792;29;20097;-81
2022/09/14 02:36:35;;;;;;;73.03;33.33;;;;;;;12.25;100.00;98402.25;4904180;29;20386;-81
2022/09/14 02:39:05;;;;;;;;;;;;;;;12.33;100.00;98411.69;4906243;29;20111;-82
2022/09/14 02:41:47;;;;;;;70.53;32.58;;;;;;;12.45;100.00;98406.47;4905330;29;19915;-81
2022/09/14 02:44:40;;;;;;;79.15;35.72;;;;;;;12.43;100.00;98412.75;4920753;29;20075;-81
2022/09/14 02:47:20;;;;;;;75.53;33.72;;;;;;;12.40;100.00;98412.41;4912005;29;20063;-81
2022/09/14 02:49:54;;;;;;;73.72;34.13;;;;;;;12.67;100.00;98420.75;4885652;29;20032;-82
2022/09/14 02:53:06;;;;;;;74.25;34.72;;;;;;;12.87;100.00;98419.69;4904948;29;20028;-82
2022/09/14 02:55:40;;;;;;;72.80;34.10;;;;;;;12.91;100.00;98415.56;4873974;29;20040;-82
2022/09/14 02:58:11;;;;;;;76.68;34.10;;;;;;;13.10;100.00;98418.94;4902482;29;20099;-81
2022/09/14 03:00:40;;;;;;;83.45;36.28;;;;;;;13.24;100.00;98413.44;4908012;29;20068;-82
2022/09/14 03:03:08;;;;;;;72.35;34.03;;;;;;;13.06;100.00;98401.16;4903999;29;20029;-82
2022/09/14 03:05:34;;;;;;;70.35;34.42;;;;;;;13.03;100.00;98386.59;4908331;29;20466;-82
2022/09/14 03:08:00;;;;;;;66.10;32.22;;;;;;;13.08;100.00;98389.38;4906483;29;20044;-82
2022/09/14 03:10:27;;;;;;;61.55;31.63;;;;;;;13.27;100.00;98392.72;4921512;29;20042;-81
2022/09/14 03:12:53;;;;;;;64.28;30.92;;;;;;;13.15;100.00;98383.97;4908827;29;20033;-81
2022/09/14 03:15:18;;;;;;;63.10;29.50;;;;;;;13.14;100.00;98382.38;4905551;29;20080;-82
2022/09/14 03:17:46;;;;;;;47.70;22.48;;;;;;;13.17;100.00;98360.88;4908001;29;20095;-81
2022/09/14 03:20:13;;;;;;;46.65;22.38;;;;;;;13.32;100.00;98362.22;4908158;29;20057;-81
2022/09/14 03:22:39;;;;;;;45.97;24.50;;;;;;;13.32;100.00;98363.06;4903638;29;20562;-82
2022/09/14 03:25:05;;;;;;;47.40;25.48;;;;;;;13.39;100.00;98362.94;4890683;29;20032;-82
2022/09/14 03:27:30;;;;;;;57.90;27.02;;;;;;;13.32;100.00;98363.06;4919808;29;20039;-82
2022/09/14 03:29:56;;;;;;;42.88;23.67;;;;;;;13.39;100.00;98347.91;4887808;29;20044;-83
2022/09/14 03:32:22;;;;;;;40.95;22.08;;;;;;;13.41;100.00;98348.47;4890758;29;20090;-83
2022/09/14 03:34:47;;;;;;;41.10;22.63;;;;;;;13.36;100.00;98353.66;4906938;29;20040;-82
2022/09/14 03:37:13;;;;;;;46.20;22.50;;;;;;;13.22;100.00;98347.81;4887499;29;20064;-82
2022/09/14 03:39:39;;;;;;;49.75;23.27;;;;;;;13.25;100.00;98344.72;4907380;29;20067;-83
2022/09/14 03:42:04;;;;;;;51.70;24.52;;;;;;;13.03;100.00;98354.19;4903248;29;20052;-81
2022/09/14 03:44:31;;;;;;;51.75;25.75;;;;;;;12.98;100.00;98350.44;4904921;29;20036;-82
2022/09/14 03:46:57;;;;;;;54.88;25.58;;;;;;;12.88;100.00;98350.16;4906679;29;20063;-81
2022/09/14 03:49:23;;;;;;;49.45;24.35;;;;;;;12.93;100.00;98350.28;4887852;29;20083;-81
2022/09/14 03:51:48;;;;;;;51.88;25.23;;;;;;;12.80;100.00;98346.03;4905987;29;20064;-81
2022/09/14 03:54:14;;;;;;;53.00;25.10;;;;;;;12.86;100.00;98355.66;4904449;29;20029;-80
2022/09/14 03:56:40;;;;;;;49.17;23.88;;;;;;;12.89;100.00;98351.78;4905534;29;20083;-81
2022/09/14 03:59:08;;;;;;;45.13;23.42;;;;;;;12.73;100.00;98345.34;4923035;29;20056;-81
2022/09/14 04:01:34;;;;;;;45.50;22.48;;;;;;;12.68;100.00;98348.63;4906143;29;20094;-81
2022/09/14 04:03:59;;;;;;;49.42;23.67;;;;;;;12.54;100.00;98357.75;4903308;29;20056;-82
2022/09/14 04:06:25;;;;;;;56.00;23.77;;;;;;;12.40;100.00;98341.34;4904512;29;20096;-82
2022/09/14 04:08:51;;;;;;;45.97;22.08;;;;;;;12.35;100.00;98328.06;4917175;29;20080;-80
2022/09/14 04:11:18;;;;;;;46.78;22.67;;;;;;;12.53;100.00;98341.16;4892626;29;20043;-81
2022/09/14 04:13:45;;;;;;;45.75;23.13;;;;;;;12.41;100.00;98332.41;4906722;29;20140;-81
2022/09/14 04:16:11;;;;;;;50.75;25.23;;;;;;;12.42;100.00;98340.09;4921443;29;20095;-81
2022/09/14 04:18:37;;;;;;;47.15;23.38;;;;;;;12.50;100.00;98341.63;4889852;29;20070;-82
2022/09/14 04:21:11;;;;;;;46.03;22.50;;;;;;;12.48;100.00;98335.78;4918555;29;20036;-82
2022/09/14 04:23:37;;;;;;;59.25;27.08;;;;;;;12.48;100.00;98337.59;4905760;29;20036;-82
2022/09/14 04:26:11;;;;;;;59.85;26.63;;;;;;;12.42;100.00;98350.63;4906655;29;20035;-82
2022/09/14 04:28:36;;;;;;;50.95;25.60;;;;;;;12.49;100.00;98344.47;4902939;29;20036;-81
2022/09/14 04:31:02;;;;;;;55.67;24.90;;;;;;;12.46;100.00;98356.22;4907764;29;20160;-82
2022/09/14 04:33:30;;;;;;;49.92;24.00;;;;;;;12.39;100.00;98345.81;4886729;29;20033;-82
2022/09/14 04:36:01;;;;;;;47.38;21.92;;;;;;;12.43;100.00;98343.50;4909307;29;20036;-81
2022/09/14 04:38:28;;;;;;;40.47;21.17;;;;;;;12.41;100.00;98359.56;4902497;29;20438;-82
2022/09/14 04:40:54;;;;;;;46.40;21.15;;;;;;;12.12;100.00;98345.34;4903214;29;20032;-82
2022/09/14 04:43:20;;;;;;;45.38;20.45;;;;;;;12.28;100.00;98350.00;4889757;29;20080;-82
2022/09/14 04:45:47;;;;;;;45.10;23.70;;;;;;;12.17;100.00;98344.66;4906465;29;20076;-82
2022/09/14 04:48:13;;;;;;;51.38;23.75;;;;;;;12.10;100.00;98334.25;4922260;29;20470;-82
2022/09/14 04:50:39;;;;;;;47.38;22.70;;;;;;;12.23;100.00;98335.91;4904928;29;20075;-82
2022/09/14 04:53:05;;;;;;;48.72;21.92;;;;;;;12.13;100.00;98325.91;4906869;29;20035;-82
2022/09/14 04:55:31;;;;;;;52.47;23.45;;;;;;;12.14;100.00;98341.47;4908497;29;20148;-82
2022/09/14 04:57:56;;;;;;;39.88;20.63;;;;;;;12.25;100.00;98333.84;4924007;29;20036;-82
2022/09/14 05:00:22;;;;;;;47.33;20.98;;;;;;;12.12;100.00;98329.56;4911078;29;20027;-82
2022/09/14 05:02:48;;;;;;;45.38;20.60;;;;;;;12.02;100.00;98327.47;4905941;29;20387;-82
2022/09/14 05:05:14;;;;;;;39.67;20.75;;;;;;;12.01;100.00;98328.50;4906067;29;20036;-82
2022/09/14 05:07:39;;;;;;;40.35;18.40;;;;;;;12.03;100.00;98315.09;4893866;29;20035;-82
2022/09/14 05:10:07;;;;;;;28.25;15.90;;;;;;;11.98;100.00;98327.06;4888879;29;20065;-82
2022/09/14 05:12:35;;;;;;;26.30;14.70;;;;;;;12.12;100.00;98330.34;4907113;29;20120;-82
2022/09/14 05:15:01;;;;;;;26.77;12.98;;;;;;;12.09;100.00;98322.91;4892783;29;20036;-82
2022/09/14 05:17:26;;;;;;;21.13;11.95;;;;;;;11.94;100.00;98325.91;4888851;29;20076;-82
2022/09/14 05:19:52;;;;;;;16.42;10.93;;;;;;;12.05;100.00;98324.38;4910297;29;20050;-82
2022/09/14 05:22:18;;;;;;;16.20;9.63;;;;;;;11.86;100.00;98324.38;4919769;29;20048;-82
2022/09/14 05:24:43;;;;;;;15.27;9.90;;;;;;;11.84;100.00;98334.31;4904187;29;20083;-81
2022/09/14 05:27:08;;;;;;;18.08;9.20;;;;;;;11.79;100.00;98321.03;4911705;29;20456;-81
2022/09/14 05:29:35;;;;;;;17.08;9.13;;;;;;;11.83;100.00;98327.44;4909956;29;20045;-82
2022/09/14 05:32:01;;;;;;;18.60;9.15;;;;;;;11.83;100.00;98322.19;4916013;29;20042;-82
2022/09/14 05:34:27;;;;;;;18.08;8.13;;;;;;;11.81;100.00;98303.19;4906413;29;20446;-82
2022/09/14 05:36:52;;;;;;;14.68;7.78;;;;;;;11.84;100.00;98315.91;4905573;29;20039;-82
2022/09/14 05:39:18;;;;;;;13.23;7.47;;;;;;;11.94;100.00;98322.47;4909434;29;20499;-82
2022/09/14 05:41:43;;;;;;;18.85;7.22;;;;;;;11.77;100.00;98327.53;4908768;29;20111;-83
2022/09/14 05:44:09;;;;;;;13.30;7.05;;;;;;;11.72;100.00;98325.53;4905024;29;20037;-83
2022/09/14 05:46:34;;;;;;;13.10;7.22;;;;;;;11.63;100.00;98332.13;4909617;29;20039;-81
2022/09/14 05:49:00;;;;;;;17.90;8.38;;;;;;;11.70;100.00;98340.72;4909141;29;20111;-81
2022/09/14 05:51:26;;;;;;;9.70;6.53;;;;;;;11.83;100.00;98337.16;4903784;29;20045;-81
2022/09/14 05:53:54;;;;;;;14.98;6.20;;;;;;;11.79;100.00;98321.03;4907765;29;20450;-82
2022/09/14 05:56:21;;;;;;;13.73;7.07;;;;;;;11.84;100.00;98321.16;4909968;29;20028;-82
2022/09/14 05:58:47;;;;;;;12.73;6.97;;;;;;;11.93;100.00;98331.38;4909123;29;20080;-82
2022/09/14 06:01:19;;;;;;;14.40;6.80;;;;;;;11.80;100.00;98320.00;4921710;29;20036;-83
2022/09/14 06:03:49;;;;;;;14.32;6.72;;;;;;;11.85;100.00;98314.06;4907764;29;20033;-82
2022/09/14 06:06:17;;;;;;;14.70;6.63;;;;;;;12.02;100.00;98311.69;4909013;29;20044;-82
2022/09/14 06:08:43;;;;;;;13.05;6.95;;;;;;;11.95;100.00;98303.03;4903406;29;20398;-84
2022/09/14 06:11:10;;;;;;;14.18;6.88;;;;;;;12.01;100.00;98315.34;4911345;29;20032;-82
2022/09/14 06:13:36;;;;;;;14.50;6.70;;;;;;;12.23;100.00;98307.75;4904400;29;21658;-82
2022/09/14 06:16:07;;;;;;;14.38;6.03;;;;;;;12.24;100.00;98311.97;4890100;29;20056;-83
2022/09/14 06:18:35;;;;;;;14.93;5.75;;;;;;;12.37;100.00;98316.25;4915430;29;20033;-81
2022/09/14 06:21:07;;;;;;;15.60;6.10;;;;;;;12.37;100.00;98303.09;4905786;29;20055;-81
2022/09/14 06:23:58;;;;;;;12.00;6.10;;;;;;;12.37;100.00;98299.69;4885958;29;20056;-80
2022/09/14 06:26:25;;;;;;;15.70;6.63;;;;;;;12.29;100.00;98274.47;4867003;29;20036;-81
2022/09/14 06:28:51;;;;;;;11.40;6.10;;;;;;;12.60;100.00;98298.94;4886851;29;20040;-79
2022/09/14 06:31:21;;;;;;;12.75;5.82;;;;;;;12.48;100.00;98306.00;4884332;29;20037;-80
2022/09/14 06:33:48;;;;;;;11.70;5.63;;;;;;;12.43;100.00;98289.06;4886302;29;20065;-80
2022/09/14 06:36:19;;;;;;;13.30;5.72;;;;;;;12.53;100.00;98282.44;4886777;29;20045;-80
2022/09/14 06:38:47;;;;;;;12.82;5.63;;;;;;;12.67;100.00;98288.28;4883811;29;20158;-80
2022/09/14 06:41:16;;;;;;;9.57;5.38;;;;;;;12.70;100.00;98301.81;4883679;29;20409;-80
2022/09/14 06:43:44;;;;;;;13.52;6.93;;;;;;;12.80;100.00;98300.47;4872665;29;20088;-80
2022/09/14 06:46:12;;;;;;;13.50;5.53;;;;;;;12.89;100.00;98306.22;4882848;29;20101;-80
2022/09/14 06:48:40;;;;;;;9.57;5.63;;;;;;;12.81;100.00;98308.13;4885519;29;20100;-81
2022/09/14 06:51:30;;;;;;;8.18;5.40;;;;;;;13.08;100.00;98309.53;4867637;29;20164;-79
2022/09/14 06:53:58;;;;;;;11.70;6.75;;;;;;;12.98;100.00;98304.81;4896288;29;20025;-79
2022/09/14 06:56:26;;;;;;;11.68;6.32;;;;;;;13.24;100.00;98303.56;4868363;29;20043;-80
2022/09/14 06:58:53;;;;;;;7.72;5.13;;;;;;;13.30;100.00;98301.84;4888436;29;20399;-79
2022/09/14 07:01:20;;;;;;;10.75;6.18;;;;;;;13.22;100.00;98299.56;4885108;29;20460;-80
2022/09/14 07:03:46;;;;;;;10.02;5.80;;;;;;;13.55;100.00;98303.47;4885210;29;20036;-80
2022/09/14 07:06:21;;;;;;;15.50;6.22;;;;;;;13.61;100.00;98312.28;4865805;29;20044;-80
2022/09/14 07:08:47;;;;;;;8.90;5.60;;;;;;;13.62;100.00;98300.69;4890216;29;20029;-79
2022/09/14 07:11:16;;;;;;;8.32;5.60;;;;;;;13.66;100.00;98296.56;4872002;29;20032;-80
2022/09/14 07:13:42;;;;;;;14.63;5.88;;;;;;;13.76;100.00;98294.13;4887185;29;20119;-80
2022/09/14 07:16:08;;;;;;;10.70;6.70;;;;;;;13.63;100.00;98291.75;4886949;29;20448;-81
2022/09/14 07:18:35;;;;;;;17.35;7.72;;;;;;;13.71;100.00;98296.66;4900147;29;20137;-82
2022/09/14 07:21:10;;;;;;;14.32;7.97;;;;;;;13.81;100.00;98301.31;4889788;29;20048;-82
2022/09/14 07:23:38;;;;;;;12.75;7.75;;;;;;;13.81;100.00;98312.69;4901574;29;20051;-83
2022/09/14 07:26:14;;;;;;;13.32;7.35;;;;;;;14.00;100.00;98294.84;4907062;29;20036;-81
2022/09/14 07:28:42;;;;;;;13.95;8.30;;;;;;;13.77;100.00;98305.47;4906828;29;20028;-80
2022/09/14 07:31:23;;;;;;;13.50;8.38;;;;;;;13.83;100.00;98309.81;4906610;29;20055;-80
2022/09/14 07:33:55;;;;;;;16.92;8.45;;;;;;;14.03;100.00;98308.59;4887800;29;20068;-82
2022/09/14 07:36:22;;;;;;;13.75;8.85;;;;;;;14.02;100.00;98283.25;4887656;29;20093;-80
2022/09/14 07:38:48;;;;;;;13.80;8.57;;;;;;;14.21;100.00;98310.25;4913642;29;20060;-81
2022/09/14 07:41:14;;;;;;;16.42;9.38;;;;;;;14.16;100.00;98312.81;4906923;29;20036;-81
2022/09/14 07:43:40;;;;;;;14.57;8.57;;;;;;;14.05;100.00;98312.63;4904687;29;20088;-82
2022/09/14 07:46:06;;;;;;;11.30;8.27;;;;;;;14.27;100.00;98311.94;4906873;29;20079;-80
2022/09/14 07:48:33;;;;;;;13.25;8.40;;;;;;;14.36;100.00;98320.28;4902075;29;20043;-80
2022/09/14 07:51:07;;;;;;;14.77;8.07;;;;;;;14.32;100.00;98309.41;4901253;29;20037;-80
2022/09/14 07:53:38;;;;;;;13.27;7.50;;;;;;;14.50;100.00;98304.94;4905031;29;20087;-80
2022/09/14 07:56:04;;;;;;;10.63;6.65;;;;;;;14.49;100.00;98290.97;4889213;29;20032;-80
2022/09/14 07:58:30;;;;;;;14.02;7.10;;;;;;;14.73;100.00;98303.22;4904120;29;20032;-81
2022/09/14 08:00:58;;;;;;;11.93;6.97;;;;;;;14.53;100.00;98300.00;4901640;29;20025;-81
2022/09/14 08:03:24;;;;;;;11.73;7.22;;;;;;;14.89;100.00;98285.78;4887610;29;20367;-80
2022/09/14 08:06:01;;;;;;;12.52;7.55;;;;;;;14.81;100.00;98266.66;4904479;29;20032;-80
2022/09/14 08:08:32;;;;;;;11.40;7.22;;;;;;;14.90;100.00;98280.25;4903262;29;20049;-80
2022/09/14 08:11:11;;;;;;;10.63;6.93;;;;;;;14.89;100.00;98288.44;4904545;29;20063;-81
2022/09/14 08:13:39;;;;;;;12.27;8.00;;;;;;;15.06;100.00;98291.06;4917091;29;20039;-82
2022/09/14 08:16:05;;;;;;;11.18;6.68;;;;;;;15.30;100.00;98298.78;4920302;29;20059;-83
2022/09/14 08:18:32;;;;;;;10.25;6.75;;;;;;;15.19;100.00;98301.31;4904965;29;20035;-82
2022/09/14 08:21:04;;;;;;;13.10;7.07;;;;;;;15.19;100.00;98289.91;4903641;29;20088;-81
2022/09/14 08:23:29;;;;;;;15.00;7.70;;;;;;;14.97;100.00;98286.19;4907372;29;20052;-80
2022/09/14 08:25:55;;;;;;;15.70;7.47;;;;;;;15.04;100.00;98290.50;4902395;29;20036;-81
2022/09/14 08:28:21;;;;;;;12.73;7.28;;;;;;;15.23;100.00;98294.47;4920779;29;20499;-82
2022/09/14 08:30:46;;;;;;;9.98;6.68;;;;;;;15.41;100.00;98285.44;4905194;29;20052;-82
2022/09/14 08:33:12;;;;;;;8.07;6.07;;;;;;;15.61;100.00;98291.25;4908136;29;20036;-82
2022/09/14 08:35:42;;;;;;;10.70;6.07;;;;;;;15.51;100.00;98311.22;4885419;29;20052;-82
2022/09/14 08:38:08;;;;;;;8.98;5.43;;;;;;;15.51;100.00;98298.00;4898528;29;20043;-81
2022/09/14 08:40:43;;;;;;;11.55;5.82;;;;;;;15.68;100.00;98294.50;4904958;29;20025;-81
2022/09/14 08:43:12;;;;;;;10.35;4.10;;;;;;;15.84;100.00;98304.22;4906646;29;20471;-82
2022/09/14 08:45:41;;;;;;;7.07;4.10;;;;;;;16.03;100.00;98298.66;4886622;29;20096;-81
2022/09/14 08:48:24;;;;;;;8.60;3.60;;;;;;;15.84;100.00;98292.88;4886671;29;20095;-81
2022/09/14 08:50:52;;;;;;;11.10;3.97;;;;;;;16.09;100.00;98295.00;4903044;29;20048;-82
2022/09/14 08:53:20;;;;;;;8.85;4.10;;;;;;;16.07;100.00;98301.59;4908300;29;20028;-79
2022/09/14 08:56:01;;;;;;;5.72;3.42;;;;;;;16.26;100.00;98283.50;4903474;29;20039;-79
2022/09/14 08:58:52;;;;;;;11.20;3.95;;;;;;;16.49;100.00;98287.69;4905856;29;20579;-81
2022/09/14 09:01:34;;;;;;;6.60;3.75;;;;;;;16.48;100.00;98295.88;4921236;29;20040;-82
2022/09/14 09:04:18;;;;;;;10.32;3.63;;;;;;;16.79;100.00;98307.53;4884385;29;20045;-82
2022/09/14 09:06:59;;;;;;;11.20;3.72;;;;;;;16.30;100.00;98303.13;4913190;29;20088;-83
2022/09/14 09:09:37;;;;;;;10.68;3.72;;;;;;;16.88;100.00;98294.63;4905004;29;20040;-82
2022/09/14 09:12:04;;;;;;;10.27;3.90;;;;;;;17.08;100.00;98285.22;4907421;29;20037;-83
2022/09/14 09:14:35;;;;;;;8.25;3.80;;;;;;;16.89;100.00;98277.66;4888649;29;20111;-83
2022/09/14 09:17:06;;;;;;;10.15;3.78;;;;;;;17.32;100.00;98283.00;4887237;29;20100;-82
2022/09/14 09:19:38;;;;;;;7.28;4.10;;;;;;;17.10;100.00;98297.19;4887599;29;20036;-82
2022/09/14 09:22:11;;;;;;;6.10;4.03;;;;;;;17.17;100.00;98290.84;4905478;29;20450;-83
2022/09/14 09:24:42;;;;;;;;;;;;;;;17.03;100.00;98291.31;4905910;29;20040;-82
2022/09/14 09:27:12;;;;;;;10.27;4.82;;;;;;;16.89;100.00;98295.44;4889764;29;19944;-82
2022/09/14 09:29:38;;;;;;;8.27;5.20;;;;;;;16.83;100.00;98290.09;4904667;29;20043;-83
2022/09/14 09:32:06;;;;;;;10.73;5.78;;;;;;;16.98;100.00;98288.59;4904781;29;20040;-83
2022/09/14 09:34:33;;;;;;;14.90;6.82;;;;;;;17.15;100.00;98298.28;4890689;29;20032;-83
2022/09/14 09:36:59;;;;;;;15.73;5.65;;;;;;;17.41;100.00;98302.69;4889789;29;20375;-83
2022/09/14 09:39:25;;;;;;;7.78;5.85;;;;;;;17.39;100.00;98294.19;4890541;29;20068;-83
2022/09/14 09:42:21;;;;;;;11.48;6.13;;;;;;;17.62;100.00;98297.47;4908665;29;20434;-82
2022/09/14 09:45:00;;;;;;;8.65;6.25;;;;;;;17.36;100.00;98304.50;4906699;29;20031;-83
2022/09/14 09:47:30;;;;;;;10.45;6.65;;;;;;;16.99;100.00;98314.06;4909480;29;20043;-82
2022/09/14 09:49:58;;;;;;;9.48;6.70;;;;;;;17.60;100.00;98304.09;4892198;29;20115;-83
2022/09/14 09:52:23;;;;;;;11.10;6.47;;;;;;;17.41;100.00;98309.81;4911022;29;20051;-83
2022/09/14 09:54:52;;;;;;;11.43;6.45;;;;;;;17.03;100.00;98301.13;4908504;29;20036;-82
2022/09/14 09:57:28;;;;;;;8.93;6.28;;;;;;;17.10;100.00;98312.31;4909836;29;20040;-82
2022/09/14 10:00:19;;;;;;;8.95;6.85;;;;;;;17.78;100.00;98300.16;4891529;29;20037;-83
2022/09/14 10:02:45;;;;;;;13.77;7.70;;;;;;;17.24;100.00;98316.09;4907783;29;20115;-83
2022/09/14 10:05:17;;;;;;;14.75;7.13;;;;;;;17.37;100.00;98311.41;4905726;29;20032;-82
2022/09/14 10:07:54;;;;;;;13.48;6.95;;;;;;;17.34;100.00;98306.63;4894348;29;20064;-83
2022/09/14 10:10:38;;;;;;;10.80;6.03;;;;;;;17.79;100.00;98307.88;4905266;29;20037;-82
2022/09/14 10:13:14;;;;;;;13.27;6.13;;;;;;;18.05;100.00;98309.84;4893712;29;20478;-83
2022/09/14 10:15:42;;;;;;;9.55;5.70;;;;;;;18.10;100.00;98296.59;4902259;29;20383;-83
2022/09/14 10:18:14;;;;;;;11.98;5.28;;;;;;;17.96;100.00;98301.56;4907895;29;20048;-83
2022/09/14 10:21:05;;;;;;;9.35;5.13;;;;;;;17.59;100.00;98307.78;4921611;29;20039;-82
2022/09/14 10:23:35;;;;;;;15.35;5.43;;;;;;;18.08;100.00;98312.78;4867388;29;20076;-82
2022/09/14 10:26:13;;;;;;;9.02;5.13;;;;;;;17.93;100.00;98310.06;4874196;29;20108;-82
2022/09/14 10:28:44;;;;;;;13.32;5.22;;;;;;;18.09;100.00;98311.72;4888623;29;20040;-83
2022/09/14 10:31:19;;;;;;;6.72;5.10;;;;;;;18.08;100.00;98309.31;4888709;29;20050;-83
2022/09/14 10:33:52;;;;;;;11.07;5.20;;;;;;;18.11;100.00;98299.00;4885020;29;20478;-83
2022/09/14 10:36:22;;;;;;;10.70;5.25;;;;;;;18.16;100.00;98310.69;4889767;29;20115;-83
2022/09/14 10:38:57;;;;;;;11.63;6.47;;;;;;;18.51;100.00;98301.16;4869726;29;20562;-82
2022/09/14 10:41:32;;;;;;;12.95;5.07;;;;;;;18.67;100.00;98299.31;4874577;29;20032;-82
2022/09/14 10:44:20;;;;;;;10.23;5.57;;;;;;;18.41;100.00;98308.06;4857504;29;20048;-83
2022/09/14 10:47:24;;;;;;;11.90;6.05;;;;;;;18.33;100.00;98316.56;4871542;29;20037;-83
2022/09/14 10:49:55;;;;;;;17.90;6.10;;;;;;;18.09;100.00;98311.72;4885049;29;20036;-82
2022/09/14 10:52:36;;;;;;;16.92;5.32;;;;;;;17.92;100.00;98306.59;4871595;29;20033;-83
2022/09/14 10:55:22;;;;;;;14.75;6.00;;;;;;;18.05;100.00;98310.63;4883893;29;20041;-83
2022/09/14 10:57:47;;;;;;;8.82;4.88;;;;;;;18.09;100.00;98310.91;4874312;29;20074;-83
2022/09/14 11:00:18;;;;;;;13.32;5.13;;;;;;;17.93;100.00;98313.50;4874533;29;20032;-82
2022/09/14 11:03:08;;;;;;;6.75;4.70;;;;;;;17.70;100.00;98317.41;4890028;29;20379;-83
2022/09/14 11:05:38;;;;;;;8.80;4.40;;;;;;;17.67;100.00;98307.28;4870424;29;20041;-82
2022/09/14 11:08:36;;;;;;;9.98;4.43;;;;;;;17.61;100.00;98305.69;4890149;29;20032;-83
2022/09/14 11:11:30;;;;;;;9.60;4.50;;;;;;;17.54;100.00;98311.22;4868380;29;20038;-83
2022/09/14 11:14:33;;;;;;;9.60;4.30;;;;;;;17.72;100.00;98312.63;4892390;29;20032;-82
2022/09/14 11:17:37;;;;;;;9.13;4.35;;;;;;;17.99;100.00;98314.31;4885109;29;20033;-83
2022/09/14 11:20:32;;;;;;;11.10;4.90;;;;;;;18.07;100.00;98308.50;4873611;29;20089;-83
2022/09/14 11:23:26;;;;;;;8.95;4.47;;;;;;;18.48;100.00;98312.31;4872188;29;20041;-82
2022/09/14 11:26:15;;;;;;;9.63;4.50;;;;;;;18.05;100.00;98305.31;4884612;29;20089;-83
2022/09/14 11:28:47;;;;;;;7.90;4.07;;;;;;;18.15;100.00;98298.44;4884950;29;20124;-83
2022/09/14 11:31:16;;;;;;;7.63;4.43;;;;;;;18.27;100.00;98306.97;4869783;29;20032;-83
2022/09/14 11:33:57;;;;;;;12.48;4.63;;;;;;;18.72;100.00;98309.94;4890618;29;20037;-83